createdAt,value
2018-08-27T00:03:04.177Z,1003.67
2018-08-27T00:07:59.563Z,1003.51
2018-08-27T00:12:56.451Z,1003.38
2018-08-27T00:17:51.825Z,1003.35
2018-08-27T00:22:47.791Z,1003.09
2018-08-27T00:27:43.948Z,1003.14
2018-08-27T00:32:40.164Z,1003.13
2018-08-27T00:37:36.036Z,1003.10
2018-08-27T00:42:32.921Z,1002.90
2018-08-27T00:47:29.129Z,1002.86
2018-08-27T00:52:25.141Z,1002.73
2018-08-27T00:57:21.475Z,1002.63
2018-08-27T01:02:17.355Z,1002.59
2018-08-27T01:07:13.315Z,1002.60
2018-08-27T01:12:09.105Z,1002.54
2018-08-27T01:17:04.904Z,1002.49
2018-08-27T01:22:01.615Z,1002.39
2018-08-27T01:26:57.314Z,1002.41
2018-08-27T01:31:54.306Z,1002.32
2018-08-27T01:36:49.803Z,1002.40
2018-08-27T01:41:45.959Z,1002.34
2018-08-27T01:46:42.870Z,1002.35
2018-08-27T01:51:38.244Z,1002.28
2018-08-27T01:56:33.999Z,1002.26
2018-08-27T02:01:30.281Z,1002.08
2018-08-27T02:06:25.950Z,1002.06
2018-08-27T02:11:22.101Z,1002.02
2018-08-27T02:16:17.925Z,1001.94
2018-08-27T02:21:13.830Z,1001.88
2018-08-27T02:26:09.775Z,1001.84
2018-08-27T02:31:06.076Z,1001.64
2018-08-27T02:36:01.728Z,1001.75
2018-08-27T02:40:57.528Z,1001.81
2018-08-27T02:45:53.587Z,1001.74
2018-08-27T02:50:49.315Z,1001.66
2018-08-27T02:55:45.361Z,1001.65
2018-08-27T03:00:41.563Z,1001.55
2018-08-27T03:05:37.249Z,1001.54
2018-08-27T03:10:33.259Z,1001.56
2018-08-27T03:15:29.663Z,1001.54
2018-08-27T03:20:25.380Z,1001.47
2018-08-27T03:25:21.038Z,1001.41
2018-08-27T03:30:16.889Z,1001.40
2018-08-27T03:35:13.926Z,1001.39
2018-08-27T03:40:09.376Z,1001.37
2018-08-27T03:45:05.261Z,1001.45
2018-08-27T03:50:02.395Z,1001.37
2018-08-27T03:54:57.812Z,1001.23
2018-08-27T03:59:53.771Z,1001.19
2018-08-27T04:04:49.793Z,1001.25
2018-08-27T04:09:47.023Z,1001.34
2018-08-27T04:14:43.448Z,1001.35
2018-08-27T04:19:39.943Z,1001.42
2018-08-27T04:24:36.031Z,1001.43
2018-08-27T04:29:31.529Z,1001.40
2018-08-27T04:34:27.899Z,1001.27
2018-08-27T04:39:24.453Z,1001.27
2018-08-27T04:44:20.312Z,1001.29
2018-08-27T04:49:17.005Z,1001.41
2018-08-27T04:54:12.651Z,1001.45
2018-08-27T04:59:08.396Z,1001.46
2018-08-27T05:04:04.118Z,1001.47
2018-08-27T05:08:59.954Z,1001.51
2018-08-27T05:13:55.428Z,1001.48
2018-08-27T05:18:51.705Z,1001.58
2018-08-27T05:23:47.389Z,1001.60
2018-08-27T05:28:43.270Z,1001.51
2018-08-27T05:33:39.842Z,1001.53
2018-08-27T05:38:36.826Z,1001.53
2018-08-27T05:43:32.239Z,1001.65
2018-08-27T05:48:28.164Z,1001.65
2018-08-27T05:53:23.929Z,1001.70
2018-08-27T05:58:19.970Z,1001.73
2018-08-27T06:03:16.733Z,1001.70
2018-08-27T06:08:12.290Z,1001.78
2018-08-27T06:13:08.376Z,1001.85
2018-08-27T06:18:04.101Z,1001.87
2018-08-27T06:23:00.338Z,1001.88
2018-08-27T06:27:56.159Z,1001.94
2018-08-27T06:32:51.962Z,1002.02
2018-08-27T06:37:48.541Z,1002.03
2018-08-27T06:42:45.346Z,1002.02
2018-08-27T06:47:40.678Z,1002.02
2018-08-27T06:52:36.794Z,1002.14
2018-08-27T06:57:33.776Z,1002.09
2018-08-27T07:02:29.125Z,1002.14
2018-08-27T07:07:24.935Z,1002.19
2018-08-27T07:12:21.825Z,1002.10
2018-08-27T07:17:18.306Z,1002.15
2018-08-27T07:22:14.170Z,1002.20
2018-08-27T07:27:10.052Z,1002.24
2018-08-27T07:32:06.612Z,1002.24
2018-08-27T07:37:03.648Z,1002.20
2018-08-27T07:41:59.265Z,1002.35
2018-08-27T07:46:55.124Z,1002.36
2018-08-27T07:51:51.097Z,1002.33
2018-08-27T07:56:48.073Z,1002.33
2018-08-27T08:01:44.660Z,1002.40
2018-08-27T08:06:41.252Z,1002.41
2018-08-27T08:11:37.283Z,1002.30
2018-08-27T08:16:33.479Z,1002.41
2018-08-27T08:21:29.179Z,1002.36
2018-08-27T08:26:25.152Z,1002.49
2018-08-27T08:31:20.950Z,1002.48
2018-08-27T08:36:17.663Z,1002.58
2018-08-27T08:41:13.750Z,1002.60
2018-08-27T08:46:10.614Z,1002.63
2018-08-27T08:51:06.712Z,1002.72
2018-08-27T08:56:02.238Z,1002.75
2018-08-27T09:00:59.449Z,1002.90
2018-08-27T09:05:55.080Z,1002.89
2018-08-27T09:10:51.041Z,1002.95
2018-08-27T09:15:47.474Z,1002.91
2018-08-27T09:20:43.326Z,1002.93
2018-08-27T09:25:40.430Z,1002.98
2018-08-27T09:30:36.226Z,1002.89
2018-08-27T09:35:32.355Z,1002.85
2018-08-27T09:40:28.265Z,1002.88
2018-08-27T09:45:24.136Z,1002.91
2018-08-27T09:50:21.198Z,1002.97
2018-08-27T09:55:16.992Z,1003.05
2018-08-27T10:00:14.076Z,1003.02
2018-08-27T10:05:11.385Z,1003.11
2018-08-27T10:10:07.208Z,1003.01
2018-08-27T10:15:03.365Z,1003.09
2018-08-27T10:19:59.274Z,1003.01
2018-08-27T10:24:56.658Z,1003.18
2018-08-27T10:29:52.436Z,1003.12
2018-08-27T10:34:48.419Z,1003.16
2018-08-27T10:39:44.391Z,1003.27
2018-08-27T10:44:40.188Z,1003.20
2018-08-27T10:49:36.232Z,1003.15
2018-08-27T10:54:32.312Z,1003.18
2018-08-27T10:59:28.441Z,1003.24
2018-08-27T11:04:24.643Z,1003.19
2018-08-27T11:09:20.742Z,1003.30
2018-08-27T11:14:16.489Z,1003.26
2018-08-27T11:19:13.512Z,1003.26
2018-08-27T11:24:09.788Z,1003.29
2018-08-27T11:29:06.136Z,1003.22
2018-08-27T11:34:04.500Z,1003.29
2018-08-27T11:39:02.038Z,1003.28
2018-08-27T11:43:57.311Z,1003.34
2018-08-27T11:48:53.791Z,1003.18
2018-08-27T11:53:48.693Z,1003.27
2018-08-27T11:58:44.138Z,1003.42
2018-08-27T12:03:39.528Z,1003.44
2018-08-27T12:08:35.404Z,1003.64
2018-08-27T12:13:31.730Z,1003.61
2018-08-27T12:18:29.276Z,1003.67
2018-08-27T12:23:25.317Z,1003.72
2018-08-27T12:28:22.359Z,1003.76
2018-08-27T12:33:18.676Z,1003.77
2018-08-27T12:38:15.627Z,1003.70
2018-08-27T12:43:11.792Z,1003.73
2018-08-27T12:48:08.677Z,1003.83
2018-08-27T12:53:04.734Z,1003.89
2018-08-27T12:58:01.661Z,1003.87
2018-08-27T13:02:58.444Z,1003.96
2018-08-27T13:07:53.981Z,1004.14
2018-08-27T13:12:49.443Z,1004.26
2018-08-27T13:17:44.903Z,1004.38
2018-08-27T13:22:43.022Z,1004.34
2018-08-27T13:27:39.037Z,1004.33
2018-08-27T13:32:35.139Z,1004.55
2018-08-27T13:37:31.944Z,1004.65
2018-08-27T13:42:27.397Z,1004.69
2018-08-27T13:47:23.578Z,1004.92
2018-08-27T13:52:20.909Z,1004.99
2018-08-27T13:57:16.671Z,1005.08
2018-08-27T14:02:13.143Z,1005.19
2018-08-27T14:07:09.143Z,1005.20
2018-08-27T14:12:04.941Z,1005.30
2018-08-27T14:17:00.894Z,1005.25
2018-08-27T14:21:58.280Z,1005.27
2018-08-27T14:26:53.768Z,1005.38
2018-08-27T14:31:49.751Z,1005.47
2018-08-27T14:36:45.919Z,1005.53
2018-08-27T14:41:42.771Z,1005.52
2018-08-27T14:46:38.732Z,1005.64
2018-08-27T14:51:34.582Z,1005.62
2018-08-27T14:56:30.380Z,1005.67
2018-08-27T15:01:26.323Z,1005.89
2018-08-27T15:06:22.260Z,1005.83
2018-08-27T15:11:18.167Z,1005.99
2018-08-27T15:16:14.102Z,1005.98
2018-08-27T15:21:09.919Z,1006.04
2018-08-27T15:26:05.790Z,1006.23
2018-08-27T15:31:03.045Z,1006.25
2018-08-27T15:35:58.620Z,1006.29
2018-08-27T15:40:55.242Z,1006.26
2018-08-27T15:45:50.948Z,1006.36
2018-08-27T15:50:46.686Z,1006.42
2018-08-27T15:55:42.848Z,1006.44
2018-08-27T16:00:38.753Z,1006.48
2018-08-27T16:05:35.510Z,1006.63
2018-08-27T16:10:30.696Z,1006.71
2018-08-27T16:15:27.024Z,1006.74
2018-08-27T16:20:22.718Z,1006.90
2018-08-27T16:25:19.730Z,1006.93
2018-08-27T16:30:16.474Z,1007.15
2018-08-27T16:35:12.387Z,1007.17
2018-08-27T16:40:07.841Z,1007.20
2018-08-27T16:45:04.005Z,1007.22
2018-08-27T16:49:59.852Z,1007.30
2018-08-27T16:54:55.680Z,1007.28
2018-08-27T16:59:52.504Z,1007.26
2018-08-27T17:04:48.004Z,1007.39
2018-08-27T17:09:45.168Z,1007.38
2018-08-27T17:14:41.624Z,1007.49
2018-08-27T17:19:38.337Z,1007.44
2018-08-27T17:24:34.810Z,1007.58
2018-08-27T17:29:30.222Z,1007.60
2018-08-27T17:34:25.830Z,1007.64
2018-08-27T17:39:21.483Z,1007.65
2018-08-27T17:44:16.792Z,1007.74
2018-08-27T17:49:12.467Z,1007.85
2018-08-27T17:54:08.317Z,1007.96
2018-08-27T17:59:04.227Z,1007.93
2018-08-27T18:04:00.911Z,1008.13
2018-08-27T18:08:56.462Z,1008.25
2018-08-27T18:13:52.259Z,1008.17
2018-08-27T18:18:48.410Z,1008.24
2018-08-27T18:23:44.068Z,1008.35
2018-08-27T18:28:40.117Z,1008.49
2018-08-27T18:33:36.314Z,1008.55
2018-08-27T18:38:32.109Z,1008.59
2018-08-27T18:43:27.870Z,1008.70
2018-08-27T18:48:23.733Z,1008.66
2018-08-27T18:53:19.703Z,1008.83
2018-08-27T18:58:16.646Z,1008.89
2018-08-27T19:03:12.966Z,1009.01
2018-08-27T19:08:08.992Z,1009.05
2018-08-27T19:13:04.900Z,1009.15
2018-08-27T19:18:01.088Z,1009.13
2018-08-27T19:22:57.054Z,1009.20
2018-08-27T19:27:52.896Z,1009.23
2018-08-27T19:32:49.435Z,1009.30
2018-08-27T19:37:45.791Z,1009.40
2018-08-27T19:42:41.428Z,1009.58
2018-08-27T19:47:37.531Z,1009.46
2018-08-27T19:52:33.275Z,1009.51
2018-08-27T19:57:29.189Z,1009.58
2018-08-27T20:02:25.040Z,1009.65
2018-08-27T20:07:21.708Z,1009.64
2018-08-27T20:12:18.611Z,1009.67
2018-08-27T20:17:14.243Z,1009.69
2018-08-27T20:22:10.294Z,1009.76
2018-08-27T20:27:06.175Z,1009.77
2018-08-27T20:32:01.721Z,1009.94
2018-08-27T20:36:57.958Z,1009.95
2018-08-27T20:41:53.623Z,1009.91
2018-08-27T20:46:49.527Z,1010.01
2018-08-27T20:51:45.377Z,1010.06
2018-08-27T20:56:41.331Z,1010.15
2018-08-27T21:01:37.320Z,1010.20
2018-08-27T21:06:33.880Z,1010.16
2018-08-27T21:11:30.359Z,1010.26
2018-08-27T21:16:25.589Z,1010.36
2018-08-27T21:21:21.262Z,1010.32
2018-08-27T21:26:17.169Z,1010.38
2018-08-27T21:31:13.098Z,1010.45
2018-08-27T21:36:08.691Z,1010.42
2018-08-27T21:41:05.103Z,1010.52
2018-08-27T21:46:01.189Z,1010.51
2018-08-27T21:50:57.172Z,1010.56
2018-08-27T21:55:52.905Z,1010.52
2018-08-27T22:00:48.449Z,1010.45
2018-08-27T22:05:44.527Z,1010.61
2018-08-27T22:10:40.174Z,1010.63
2018-08-27T22:15:37.371Z,1010.68
2018-08-27T22:20:33.024Z,1010.71
2018-08-27T22:25:28.737Z,1010.79
2018-08-27T22:30:25.594Z,1010.77
2018-08-27T22:35:21.132Z,1010.85
2018-08-27T22:40:17.936Z,1010.83
2018-08-27T22:45:13.460Z,1010.86
2018-08-27T22:50:08.965Z,1010.78
2018-08-27T22:55:05.694Z,1010.95
2018-08-27T23:00:02.254Z,1010.90
2018-08-27T23:04:57.259Z,1010.94
2018-08-27T23:09:53.821Z,1011.00
2018-08-27T23:14:49.590Z,1011.10
2018-08-27T23:19:46.359Z,1011.12
2018-08-27T23:24:41.899Z,1011.13
2018-08-27T23:29:37.989Z,1011.11
2018-08-27T23:34:34.008Z,1011.16
2018-08-27T23:39:30.085Z,1011.16
2018-08-27T23:44:25.738Z,1011.16
2018-08-27T23:49:22.646Z,1011.26
2018-08-27T23:54:18.175Z,1011.24
2018-08-27T23:59:14.604Z,1011.25
